sensor_id;sensor_type;location;lat;lon;timestamp;pressure;altitude;pressure_sealevel;temperature;humidity
58295;BME280;45705;55.592;37.460;2024-02-23T00:02:05;99326.03;;;-3.05;100.00
58295;BME280;45705;55.592;37.460;2024-02-23T00:04:31;99314.38;;;-3.04;100.00
58295;BME280;45705;55.592;37.460;2024-02-23T00:06:56;99317.03;;;-3.04;100.00
58295;BME280;45705;55.592;37.460;2024-02-23T00:09:22;99310.72;;;-3.10;100.00
58295;BME280;45705;55.592;37.460;2024-02-23T00:11:49;99295.28;;;-3.26;100.00
58295;BME280;45705;55.592;37.460;2024-02-23T00:14:16;99312.53;;;-3.10;100.00
58295;BME280;45705;55.592;37.460;2024-02-23T00:16:44;99308.47;;;-3.13;100.00
58295;BME280;45705;55.592;37.460;2024-02-23T00:19:10;99317.97;;;-3.24;100.00
58295;BME280;45705;55.592;37.460;2024-02-23T00:21:37;99309.13;;;-3.18;100.00
58295;BME280;45705;55.592;37.460;2024-02-23T00:24:03;99307.22;;;-3.10;100.00
58295;BME280;45705;55.592;37.460;2024-02-23T00:26:29;99311.25;;;-3.01;100.00
58295;BME280;45705;55.592;37.460;2024-02-23T00:28:55;99309.28;;;-3.12;100.00
58295;BME280;45705;55.592;37.460;2024-02-23T00:34:10;99309.38;;;-2.94;100.00
58295;BME280;45705;55.592;37.460;2024-02-23T00:36:41;99310.19;;;-2.93;100.00
58295;BME280;45705;55.592;37.460;2024-02-23T00:39:07;99310.19;;;-2.93;100.00
58295;BME280;45705;55.592;37.460;2024-02-23T00:41:36;99313.28;;;-2.97;100.00
58295;BME280;45705;55.592;37.460;2024-02-23T00:44:03;99308.19;;;-2.98;100.00
58295;BME280;45705;55.592;37.460;2024-02-23T00:46:29;99316.09;;;-2.91;100.00
58295;BME280;45705;55.592;37.460;2024-02-23T00:48:55;99324.28;;;-2.93;100.00
58295;BME280;45705;55.592;37.460;2024-02-23T00:51:21;99310.78;;;-2.91;100.00
58295;BME280;45705;55.592;37.460;2024-02-23T00:53:47;99325.84;;;-2.79;100.00
58295;BME280;45705;55.592;37.460;2024-02-23T00:56:13;99331.16;;;-2.79;100.00
58295;BME280;45705;55.592;37.460;2024-02-23T00:58:39;99334.41;;;-2.77;100.00
58295;BME280;45705;55.592;37.460;2024-02-23T01:01:05;99337.50;;;-2.54;100.00
58295;BME280;45705;55.592;37.460;2024-02-23T01:03:31;99320.94;;;-2.82;100.00
58295;BME280;45705;55.592;37.460;2024-02-23T01:05:58;99338.44;;;-2.67;100.00
58295;BME280;45705;55.592;37.460;2024-02-23T01:08:23;99340.00;;;-2.85;100.00
58295;BME280;45705;55.592;37.460;2024-02-23T01:10:49;99341.72;;;-2.65;100.00
58295;BME280;45705;55.592;37.460;2024-02-23T01:13:15;99339.75;;;-2.77;100.00
58295;BME280;45705;55.592;37.460;2024-02-23T01:15:42;99331.59;;;-2.82;100.00
58295;BME280;45705;55.592;37.460;2024-02-23T01:18:08;99342.31;;;-2.63;100.00
58295;BME280;45705;55.592;37.460;2024-02-23T01:20:34;99334.03;;;-2.80;100.00
58295;BME280;45705;55.592;37.460;2024-02-23T01:23:00;99331.16;;;-2.79;100.00
58295;BME280;45705;55.592;37.460;2024-02-23T01:25:26;99335.00;;;-2.74;100.00
58295;BME280;45705;55.592;37.460;2024-02-23T01:27:52;99325.13;;;-2.92;100.00
58295;BME280;45705;55.592;37.460;2024-02-23T01:30:18;99329.88;;;-2.69;100.00
58295;BME280;45705;55.592;37.460;2024-02-23T01:32:45;99322.47;;;-2.67;100.00
58295;BME280;45705;55.592;37.460;2024-02-23T01:35:19;99318.66;;;-2.53;100.00
58295;BME280;45705;55.592;37.460;2024-02-23T01:37:45;99313.16;;;-2.58;100.00
58295;BME280;45705;55.592;37.460;2024-02-23T01:40:11;99324.09;;;-2.66;100.00
58295;BME280;45705;55.592;37.460;2024-02-23T01:42:37;99315.47;;;-2.62;100.00
58295;BME280;45705;55.592;37.460;2024-02-23T01:45:03;99314.03;;;-2.64;100.00
58295;BME280;45705;55.592;37.460;2024-02-23T01:47:31;99321.59;;;-2.61;100.00
58295;BME280;45705;55.592;37.460;2024-02-23T01:49:58;99314.53;;;-2.49;100.00
58295;BME280;45705;55.592;37.460;2024-02-23T01:52:25;99320.84;;;-2.68;100.00
58295;BME280;45705;55.592;37.460;2024-02-23T01:54:52;99311.25;;;-2.69;100.00
58295;BME280;45705;55.592;37.460;2024-02-23T01:57:18;99315.50;;;-2.68;100.00
58295;BME280;45705;55.592;37.460;2024-02-23T01:59:44;99313.44;;;-2.66;100.00
58295;BME280;45705;55.592;37.460;2024-02-23T02:02:10;99315.13;;;-2.72;100.00
58295;BME280;45705;55.592;37.460;2024-02-23T02:04:36;99316.78;;;-2.71;100.00
58295;BME280;45705;55.592;37.460;2024-02-23T02:07:03;99325.28;;;-2.62;100.00
58295;BME280;45705;55.592;37.460;2024-02-23T02:09:28;99327.44;;;-2.78;100.00
58295;BME280;45705;55.592;37.460;2024-02-23T02:11:54;99319.66;;;-2.72;100.00
58295;BME280;45705;55.592;37.460;2024-02-23T02:14:20;99328.66;;;-2.73;100.00
58295;BME280;45705;55.592;37.460;2024-02-23T02:16:46;99326.16;;;-2.68;100.00
58295;BME280;45705;55.592;37.460;2024-02-23T02:19:13;99311.84;;;-2.67;100.00
58295;BME280;45705;55.592;37.460;2024-02-23T02:21:41;99318.88;;;-2.80;100.00
58295;BME280;45705;55.592;37.460;2024-02-23T02:24:08;99327.41;;;-2.71;100.00
58295;BME280;45705;55.592;37.460;2024-02-23T02:26:35;99327.44;;;-2.78;100.00
58295;BME280;45705;55.592;37.460;2024-02-23T02:29:01;99325.34;;;-2.69;100.00
58295;BME280;45705;55.592;37.460;2024-02-23T02:31:27;99324.09;;;-2.66;100.00
58295;BME280;45705;55.592;37.460;2024-02-23T02:33:53;99333.97;;;-2.73;100.00
58295;BME280;45705;55.592;37.460;2024-02-23T02:36:18;99327.22;;;-2.69;100.00
58295;BME280;45705;55.592;37.460;2024-02-23T02:38:44;99320.41;;;-2.65;100.00
58295;BME280;45705;55.592;37.460;2024-02-23T02:41:10;99321.28;;;-2.71;100.00
58295;BME280;45705;55.592;37.460;2024-02-23T02:43:36;99319.53;;;-2.59;100.00
58295;BME280;45705;55.592;37.460;2024-02-23T02:46:02;99331.47;;;-2.68;100.00
58295;BME280;45705;55.592;37.460;2024-02-23T02:48:27;99322.13;;;-2.78;100.00
58295;BME280;45705;55.592;37.460;2024-02-23T02:50:53;99329.72;;;-2.56;100.00
58295;BME280;45705;55.592;37.460;2024-02-23T02:53:20;99333.53;;;-2.70;100.00
58295;BME280;45705;55.592;37.460;2024-02-23T02:55:45;99341.94;;;-2.73;100.00
58295;BME280;45705;55.592;37.460;2024-02-23T02:58:11;99335.88;;;-2.55;100.00
58295;BME280;45705;55.592;37.460;2024-02-23T03:00:38;99343.78;;;-2.67;100.00
58295;BME280;45705;55.592;37.460;2024-02-23T03:03:04;99345.84;;;-2.69;100.00
58295;BME280;45705;55.592;37.460;2024-02-23T03:05:30;99331.94;;;-2.71;100.00
58295;BME280;45705;55.592;37.460;2024-02-23T03:07:56;99340.06;;;-2.66;100.00
58295;BME280;45705;55.592;37.460;2024-02-23T03:10:22;99339.16;;;-2.53;100.00
58295;BME280;45705;55.592;37.460;2024-02-23T03:12:48;99351.47;;;-2.59;100.00
58295;BME280;45705;55.592;37.460;2024-02-23T03:15:13;99341.91;;;-2.67;100.00
58295;BME280;45705;55.592;37.460;2024-02-23T03:17:39;99351.91;;;-2.62;100.00
58295;BME280;45705;55.592;37.460;2024-02-23T03:20:05;99320.06;;;-2.75;100.00
58295;BME280;45705;55.592;37.460;2024-02-23T03:22:35;99337.69;;;-2.74;100.00
58295;BME280;45705;55.592;37.460;2024-02-23T03:25:02;99352.44;;;-2.79;100.00
58295;BME280;45705;55.592;37.460;2024-02-23T03:27:37;99336.47;;;-2.79;100.00
58295;BME280;45705;55.592;37.460;2024-02-23T03:30:04;99347.84;;;-2.65;100.00
58295;BME280;45705;55.592;37.460;2024-02-23T03:32:31;99338.69;;;-2.75;100.00
58295;BME280;45705;55.592;37.460;2024-02-23T03:35:05;99343.28;;;-2.83;100.00
58295;BME280;45705;55.592;37.460;2024-02-23T03:37:31;99359.44;;;-2.84;100.00
58295;BME280;45705;55.592;37.460;2024-02-23T03:39:57;99356.81;;;-2.59;100.00
58295;BME280;45705;55.592;37.460;2024-02-23T03:42:25;99354.91;;;-2.77;100.00
58295;BME280;45705;55.592;37.460;2024-02-23T03:44:51;99367.94;;;-2.69;100.00
58295;BME280;45705;55.592;37.460;2024-02-23T03:47:16;99362.41;;;-2.67;100.00
58295;BME280;45705;55.592;37.460;2024-02-23T03:49:42;99366.09;;;-2.68;100.00
58295;BME280;45705;55.592;37.460;2024-02-23T03:52:08;99354.84;;;-2.70;100.00
58295;BME280;45705;55.592;37.460;2024-02-23T03:54:34;99348.84;;;-2.91;100.00
58295;BME280;45705;55.592;37.460;2024-02-23T03:57:00;99353.25;;;-2.78;100.00
58295;BME280;45705;55.592;37.460;2024-02-23T03:59:25;99360.84;;;-2.50;100.00
58295;BME280;45705;55.592;37.460;2024-02-23T04:01:51;99355.81;;;-2.40;100.00
58295;BME280;45705;55.592;37.460;2024-02-23T04:04:17;99362.72;;;-2.57;100.00
58295;BME280;45705;55.592;37.460;2024-02-23T04:06:43;99353.66;;;-2.74;100.00
58295;BME280;45705;55.592;37.460;2024-02-23T04:09:08;99359.78;;;-2.74;100.00
58295;BME280;45705;55.592;37.460;2024-02-23T04:11:34;99357.78;;;-2.79;100.00
58295;BME280;45705;55.592;37.460;2024-02-23T04:14:00;99367.13;;;-2.69;100.00
58295;BME280;45705;55.592;37.460;2024-02-23T04:16:27;99367.66;;;-2.61;100.00
58295;BME280;45705;55.592;37.460;2024-02-23T04:18:53;99356.03;;;-2.66;100.00
58295;BME280;45705;55.592;37.460;2024-02-23T04:21:20;99352.09;;;-2.64;100.00
58295;BME280;45705;55.592;37.460;2024-02-23T04:23:46;99345.78;;;-2.63;100.00
58295;BME280;45705;55.592;37.460;2024-02-23T04:26:12;99360.00;;;-2.50;100.00
58295;BME280;45705;55.592;37.460;2024-02-23T04:28:39;99363.00;;;-2.65;100.00
58295;BME280;45705;55.592;37.460;2024-02-23T04:31:05;99363.81;;;-2.65;100.00
58295;BME280;45705;55.592;37.460;2024-02-23T04:33:30;99367.25;;;-2.58;100.00
58295;BME280;45705;55.592;37.460;2024-02-23T04:35:57;99367.94;;;-2.69;100.00
58295;BME280;45705;55.592;37.460;2024-02-23T04:38:22;99364.94;;;-2.54;100.00
58295;BME280;45705;55.592;37.460;2024-02-23T04:40:48;99352.00;;;-2.75;100.00
58295;BME280;45705;55.592;37.460;2024-02-23T04:43:14;99370.13;;;-2.59;100.00
58295;BME280;45705;55.592;37.460;2024-02-23T04:45:40;99369.63;;;-2.74;100.00
58295;BME280;45705;55.592;37.460;2024-02-23T04:48:06;99359.59;;;-2.54;100.00
58295;BME280;45705;55.592;37.460;2024-02-23T04:50:32;99372.72;;;-2.52;100.00
58295;BME280;45705;55.592;37.460;2024-02-23T04:52:57;99380.06;;;-2.48;100.00
58295;BME280;45705;55.592;37.460;2024-02-23T04:55:23;99388.66;;;-2.46;100.00
58295;BME280;45705;55.592;37.460;2024-02-23T04:57:49;99367.44;;;-2.59;100.00
58295;BME280;45705;55.592;37.460;2024-02-23T05:00:15;99393.19;;;-2.53;100.00
58295;BME280;45705;55.592;37.460;2024-02-23T05:02:41;99388.75;;;-2.59;100.00
58295;BME280;45705;55.592;37.460;2024-02-23T05:05:07;99395.25;;;-2.55;100.00
58295;BME280;45705;55.592;37.460;2024-02-23T05:07:34;99403.25;;;-2.55;100.00
58295;BME280;45705;55.592;37.460;2024-02-23T05:10:00;99393.25;;;-2.60;100.00
58295;BME280;45705;55.592;37.460;2024-02-23T05:12:26;99394.84;;;-2.52;100.00
58295;BME280;45705;55.592;37.460;2024-02-23T05:14:52;99395.66;;;-2.51;100.00
58295;BME280;45705;55.592;37.460;2024-02-23T05:17:17;99393.09;;;-2.40;100.00
58295;BME280;45705;55.592;37.460;2024-02-23T05:19:43;99390.31;;;-2.51;100.00
58295;BME280;45705;55.592;37.460;2024-02-23T05:22:09;99388.66;;;-2.46;100.00
58295;BME280;45705;55.592;37.460;2024-02-23T05:24:35;99386.41;;;-2.49;100.00
58295;BME280;45705;55.592;37.460;2024-02-23T05:27:01;99416.13;;;-2.52;100.00
58295;BME280;45705;55.592;37.460;2024-02-23T05:29:29;99413.81;;;-2.42;100.00
58295;BME280;45705;55.592;37.460;2024-02-23T05:31:55;99418.53;;;-2.44;100.00
58295;BME280;45705;55.592;37.460;2024-02-23T05:34:21;99401.69;;;-2.38;100.00
58295;BME280;45705;55.592;37.460;2024-02-23T05:36:47;99408.84;;;-2.63;100.00
58295;BME280;45705;55.592;37.460;2024-02-23T05:39:13;99407.00;;;-2.38;100.00
58295;BME280;45705;55.592;37.460;2024-02-23T05:41:41;99416.59;;;-2.37;100.00
58295;BME280;45705;55.592;37.460;2024-02-23T05:44:07;99414.34;;;-2.33;100.00
58295;BME280;45705;55.592;37.460;2024-02-23T05:46:37;99416.88;;;-2.45;100.00
58295;BME280;45705;55.592;37.460;2024-02-23T05:49:03;99416.84;;;-2.38;100.00
58295;BME280;45705;55.592;37.460;2024-02-23T05:51:32;99411.13;;;-2.42;100.00
58295;BME280;45705;55.592;37.460;2024-02-23T05:53:59;99410.97;;;-2.47;100.00
58295;BME280;45705;55.592;37.460;2024-02-23T05:56:24;99409.50;;;-2.43;100.00
58295;BME280;45705;55.592;37.460;2024-02-23T05:58:51;99415.59;;;-2.35;100.00
58295;BME280;45705;55.592;37.460;2024-02-23T06:01:18;99410.91;;;-2.15;100.00
58295;BME280;45705;55.592;37.460;2024-02-23T06:03:44;99410.47;;;-2.12;100.00
58295;BME280;45705;55.592;37.460;2024-02-23T06:06:10;99426.13;;;-2.22;100.00
58295;BME280;45705;55.592;37.460;2024-02-23T06:08:36;99423.31;;;-2.27;100.00
58295;BME280;45705;55.592;37.460;2024-02-23T06:11:03;99418.75;;;-2.20;100.00
58295;BME280;45705;55.592;37.460;2024-02-23T06:13:30;99418.34;;;-2.24;100.00
58295;BME280;45705;55.592;37.460;2024-02-23T06:15:56;99419.16;;;-2.23;100.00
58295;BME280;45705;55.592;37.460;2024-02-23T06:18:22;99423.31;;;-2.27;100.00
58295;BME280;45705;55.592;37.460;2024-02-23T06:20:50;99418.63;;;-2.07;100.00
58295;BME280;45705;55.592;37.460;2024-02-23T06:23:16;99419.44;;;-2.06;100.00
58295;BME280;45705;55.592;37.460;2024-02-23T06:25:43;99416.97;;;-2.08;100.00
58295;BME280;45705;55.592;37.460;2024-02-23T06:28:12;99428.28;;;-1.87;100.00
58295;BME280;45705;55.592;37.460;2024-02-23T06:30:38;99428.31;;;-1.94;100.00
58295;BME280;45705;55.592;37.460;2024-02-23T06:33:04;99420.19;;;-1.99;100.00
58295;BME280;45705;55.592;37.460;2024-02-23T06:35:30;99431.94;;;-2.07;100.00
58295;BME280;45705;55.592;37.460;2024-02-23T06:37:56;99429.16;;;-1.93;100.00
58295;BME280;45705;55.592;37.460;2024-02-23T06:40:22;99429.59;;;-1.96;100.00
58295;BME280;45705;55.592;37.460;2024-02-23T06:42:48;99434.91;;;-1.96;100.00
58295;BME280;45705;55.592;37.460;2024-02-23T06:45:16;99417.75;;;-2.01;100.00
58295;BME280;45705;55.592;37.460;2024-02-23T06:47:44;99444.88;;;-2.10;100.00
58295;BME280;45705;55.592;37.460;2024-02-23T06:50:10;99446.88;;;-2.06;100.00
58295;BME280;45705;55.592;37.460;2024-02-23T06:52:36;99452.22;;;-2.06;100.00
58295;BME280;45705;55.592;37.460;2024-02-23T06:55:03;99452.97;;;-1.99;100.00
58295;BME280;45705;55.592;37.460;2024-02-23T06:57:30;99448.84;;;-1.94;100.00
58295;BME280;45705;55.592;37.460;2024-02-23T06:59:56;99445.41;;;-2.02;100.00
58295;BME280;45705;55.592;37.460;2024-02-23T07:02:22;99458.19;;;-1.85;100.00
58295;BME280;45705;55.592;37.460;2024-02-23T07:04:48;99450.28;;;-1.73;100.00
58295;BME280;45705;55.592;37.460;2024-02-23T07:07:14;99466.47;;;-1.93;100.00
58295;BME280;45705;55.592;37.460;2024-02-23T07:09:39;99467.88;;;-1.91;100.00
58295;BME280;45705;55.592;37.460;2024-02-23T07:12:06;99465.00;;;-1.71;100.00
58295;BME280;45705;55.592;37.460;2024-02-23T07:14:32;99474.94;;;-1.78;100.00
58295;BME280;45705;55.592;37.460;2024-02-23T07:16:58;99467.66;;;-1.89;100.00
58295;BME280;45705;55.592;37.460;2024-02-23T07:19:24;99460.56;;;-1.77;100.00
58295;BME280;45705;55.592;37.460;2024-02-23T07:21:50;99453.84;;;-1.80;100.00
58295;BME280;45705;55.592;37.460;2024-02-23T07:24:15;99463.13;;;-1.89;100.00
58295;BME280;45705;55.592;37.460;2024-02-23T07:26:41;99455.91;;;-1.63;100.00
58295;BME280;45705;55.592;37.460;2024-02-23T07:29:07;99446.94;;;-1.69;100.00
58295;BME280;45705;55.592;37.460;2024-02-23T07:31:33;99451.94;;;-1.72;100.00
58295;BME280;45705;55.592;37.460;2024-02-23T07:34:00;99463.28;;;-1.59;100.00
58295;BME280;45705;55.592;37.460;2024-02-23T07:36:27;99461.63;;;-1.60;100.00
58295;BME280;45705;55.592;37.460;2024-02-23T07:38:53;99470.72;;;-1.67;100.00
58295;BME280;45705;55.592;37.460;2024-02-23T07:41:18;99462.72;;;-1.67;100.00
58295;BME280;45705;55.592;37.460;2024-02-23T07:43:45;99467.31;;;-1.74;100.00
58295;BME280;45705;55.592;37.460;2024-02-23T07:46:12;99468.44;;;-1.82;100.00
58295;BME280;45705;55.592;37.460;2024-02-23T07:48:38;99457.19;;;-1.66;100.00
58295;BME280;45705;55.592;37.460;2024-02-23T07:51:05;99452.06;;;-1.67;100.00
58295;BME280;45705;55.592;37.460;2024-02-23T07:53:31;99457.59;;;-1.69;100.00
58295;BME280;45705;55.592;37.460;2024-02-23T07:55:58;99450.69;;;-1.95;100.00
58295;BME280;45705;55.592;37.460;2024-02-23T07:58:25;99436.88;;;-1.85;100.00
58295;BME280;45705;55.592;37.460;2024-02-23T08:00:54;99460.44;;;-1.64;100.00
58295;BME280;45705;55.592;37.460;2024-02-23T08:03:20;99464.28;;;-1.60;100.00
58295;BME280;45705;55.592;37.460;2024-02-23T08:05:46;99443.84;;;-1.66;100.00
58295;BME280;45705;55.592;37.460;2024-02-23T08:08:12;99467.34;;;-1.56;100.00
58295;BME280;45705;55.592;37.460;2024-02-23T08:10:38;99475.88;;;-1.47;100.00
58295;BME280;45705;55.592;37.460;2024-02-23T08:13:04;99479.13;;;-1.45;100.00
58295;BME280;45705;55.592;37.460;2024-02-23T08:15:29;99474.53;;;-1.38;100.00
58295;BME280;45705;55.592;37.460;2024-02-23T08:17:55;99474.09;;;-1.35;100.00
58295;BME280;45705;55.592;37.460;2024-02-23T08:20:21;99489.34;;;-1.05;100.00
58295;BME280;45705;55.592;37.460;2024-02-23T08:22:47;99485.78;;;-1.17;100.00
58295;BME280;45705;55.592;37.460;2024-02-23T08:25:13;99485.34;;;-1.14;100.00
58295;BME280;45705;55.592;37.460;2024-02-23T08:27:40;99482.00;;;-1.10;100.00
58295;BME280;45705;55.592;37.460;2024-02-23T08:30:06;99484.91;;;-1.11;100.00
58295;BME280;45705;55.592;37.460;2024-02-23T08:32:32;99478.16;;;-1.14;100.00
58295;BME280;45705;55.592;37.460;2024-02-23T08:34:58;99476.59;;;-1.03;100.00
58295;BME280;45705;55.592;37.460;2024-02-23T08:37:25;99482.97;;;-1.04;100.00
58295;BME280;45705;55.592;37.460;2024-02-23T08:39:52;99490.19;;;-1.05;100.00
58295;BME280;45705;55.592;37.460;2024-02-23T08:42:18;99487.09;;;-0.90;100.00
58295;BME280;45705;55.592;37.460;2024-02-23T08:44:44;99489.59;;;-0.76;100.00
58295;BME280;45705;55.592;37.460;2024-02-23T08:47:10;99490.28;;;-0.81;100.00
58295;BME280;45705;55.592;37.460;2024-02-23T08:49:35;99501.50;;;-0.91;100.00
58295;BME280;45705;55.592;37.460;2024-02-23T08:52:01;99501.50;;;-0.91;100.00
58295;BME280;45705;55.592;37.460;2024-02-23T08:54:27;99498.81;;;-0.91;100.00
58295;BME280;45705;55.592;37.460;2024-02-23T08:56:53;99504.81;;;-0.95;100.00
58295;BME280;45705;55.592;37.460;2024-02-23T08:59:19;99507.88;;;-1.10;100.00
58295;BME280;45705;55.592;37.460;2024-02-23T09:01:45;99509.09;;;-0.76;100.00
58295;BME280;45705;55.592;37.460;2024-02-23T09:04:13;99508.00;;;-0.87;100.00
58295;BME280;45705;55.592;37.460;2024-02-23T09:06:39;99510.16;;;-0.95;100.00
58295;BME280;45705;55.592;37.460;2024-02-23T09:09:05;99514.06;;;-0.80;100.00
58295;BME280;45705;55.592;37.460;2024-02-23T09:11:30;99514.38;;;-0.88;100.00
58295;BME280;45705;55.592;37.460;2024-02-23T09:13:56;99508.91;;;-0.93;100.00
58295;BME280;45705;55.592;37.460;2024-02-23T09:16:22;99501.94;;;-0.94;100.00
58295;BME280;45705;55.592;37.460;2024-02-23T09:18:50;99500.28;;;-0.76;100.00
58295;BME280;45705;55.592;37.460;2024-02-23T09:21:16;99507.25;;;-0.75;100.00
58295;BME280;45705;55.592;37.460;2024-02-23T09:23:42;99503.63;;;-0.81;100.00
58295;BME280;45705;55.592;37.460;2024-02-23T09:26:11;99501.34;;;-0.77;100.00
58295;BME280;45705;55.592;37.460;2024-02-23T09:28:37;99491.91;;;-0.50;100.00
58295;BME280;45705;55.592;37.460;2024-02-23T09:31:03;99506.66;;;-0.47;100.00
58295;BME280;45705;55.592;37.460;2024-02-23T09:33:30;99509.72;;;-0.32;100.00
58295;BME280;45705;55.592;37.460;2024-02-23T09:35:57;99507.28;;;-0.33;100.00
58295;BME280;45705;55.592;37.460;2024-02-23T09:38:23;99504.94;;;-0.42;100.00
58295;BME280;45705;55.592;37.460;2024-02-23T09:40:51;99507.47;;;-0.47;100.00
58295;BME280;45705;55.592;37.460;2024-02-23T09:43:17;99499.38;;;-0.40;100.00
58295;BME280;45705;55.592;37.460;2024-02-23T09:45:46;99505.16;;;0.11;100.00
58295;BME280;45705;55.592;37.460;2024-02-23T09:48:13;99508.50;;;-0.17;100.00
58295;BME280;45705;55.592;37.460;2024-02-23T09:50:40;99505.91;;;-0.24;100.00
58295;BME280;45705;55.592;37.460;2024-02-23T09:53:09;99508.25;;;-0.16;100.00
58295;BME280;45705;55.592;37.460;2024-02-23T09:55:36;99510.38;;;0.06;100.00
58295;BME280;45705;55.592;37.460;2024-02-23T09:58:03;99495.06;;;0.13;100.00
58295;BME280;45705;55.592;37.460;2024-02-23T10:00:30;99499.69;;;-0.06;100.00
58295;BME280;45705;55.592;37.460;2024-02-23T10:02:57;99508.72;;;-0.19;100.00
58295;BME280;45705;55.592;37.460;2024-02-23T10:05:29;99494.81;;;0.03;100.00
58295;BME280;45705;55.592;37.460;2024-02-23T10:07:55;99504.34;;;-0.02;100.00
58295;BME280;45705;55.592;37.460;2024-02-23T10:10:33;99508.41;;;-0.11;100.00
58295;BME280;45705;55.592;37.460;2024-02-23T10:13:00;99503.63;;;-0.09;100.00
58295;BME280;45705;55.592;37.460;2024-02-23T10:15:28;99501.91;;;0.09;100.00
58295;BME280;45705;55.592;37.460;2024-02-23T10:17:54;99506.69;;;0.18;100.00
58295;BME280;45705;55.592;37.460;2024-02-23T10:20:20;99505.63;;;0.08;100.00
58295;BME280;45705;55.592;37.460;2024-02-23T10:22:46;99508.78;;;0.05;100.00
58295;BME280;45705;55.592;37.460;2024-02-23T10:25:12;99516.44;;;0.13;100.00
58295;BME280;45705;55.592;37.460;2024-02-23T10:27:40;99499.94;;;-0.08;100.00
58295;BME280;45705;55.592;37.460;2024-02-23T10:30:07;99509.50;;;0.12;100.00
58295;BME280;45705;55.592;37.460;2024-02-23T10:32:38;99521.91;;;0.06;100.00
58295;BME280;45705;55.592;37.460;2024-02-23T10:35:08;99515.97;;;-0.08;100.00
58295;BME280;45705;55.592;37.460;2024-02-23T10:37:36;99512.63;;;0.09;100.00
58295;BME280;45705;55.592;37.460;2024-02-23T10:40:03;99526.13;;;0.26;100.00
58295;BME280;45705;55.592;37.460;2024-02-23T10:42:33;99522.16;;;0.40;100.00
58295;BME280;45705;55.592;37.460;2024-02-23T10:45:01;99519.72;;;0.38;100.00
58295;BME280;45705;55.592;37.460;2024-02-23T10:47:30;99522.50;;;0.20;100.00
58295;BME280;45705;55.592;37.460;2024-02-23T10:50:00;99524.13;;;0.21;100.00
58295;BME280;45705;55.592;37.460;2024-02-23T10:52:26;99527.75;;;0.27;100.00
58295;BME280;45705;55.592;37.460;2024-02-23T10:54:53;99531.94;;;0.34;100.00
58295;BME280;45705;55.592;37.460;2024-02-23T10:57:19;99522.28;;;0.33;100.00
58295;BME280;45705;55.592;37.460;2024-02-23T10:59:48;99525.19;;;0.44;100.00
58295;BME280;45705;55.592;37.460;2024-02-23T11:02:18;99537.63;;;0.26;100.00
58295;BME280;45705;55.592;37.460;2024-02-23T11:04:47;99515.78;;;0.29;100.00
58295;BME280;45705;55.592;37.460;2024-02-23T11:07:19;99544.50;;;0.46;100.00
58295;BME280;45705;55.592;37.460;2024-02-23T11:09:58;99537.06;;;0.48;100.00
58295;BME280;45705;55.592;37.460;2024-02-23T11:12:25;99545.44;;;0.28;100.00
58295;BME280;45705;55.592;37.460;2024-02-23T11:14:56;99542.75;;;0.39;100.00
58295;BME280;45705;55.592;37.460;2024-02-23T11:17:26;99541.94;;;0.39;100.00
58295;BME280;45705;55.592;37.460;2024-02-23T11:19:54;99538.22;;;0.52;100.00
58295;BME280;45705;55.592;37.460;2024-02-23T11:22:35;99546.94;;;0.35;100.00
58295;BME280;45705;55.592;37.460;2024-02-23T11:25:06;99544.50;;;0.34;100.00
58295;BME280;45705;55.592;37.460;2024-02-23T11:27:39;99552.03;;;0.25;100.00
58295;BME280;45705;55.592;37.460;2024-02-23T11:30:10;99550.91;;;0.45;100.00
58295;BME280;45705;55.592;37.460;2024-02-23T11:32:43;99554.25;;;0.40;100.00
58295;BME280;45705;55.592;37.460;2024-02-23T11:35:14;99541.81;;;0.46;100.00
58295;BME280;45705;55.592;37.460;2024-02-23T11:37:53;99553.59;;;0.45;100.00
58295;BME280;45705;55.592;37.460;2024-02-23T11:40:32;99544.84;;;0.49;100.00
58295;BME280;45705;55.592;37.460;2024-02-23T11:42:59;99543.22;;;0.60;100.00
58295;BME280;45705;55.592;37.460;2024-02-23T11:45:28;99558.22;;;0.49;100.00
58295;BME280;45705;55.592;37.460;2024-02-23T11:47:54;99550.44;;;0.48;100.00
58295;BME280;45705;55.592;37.460;2024-02-23T11:50:20;99548.34;;;0.50;100.00
58295;BME280;45705;55.592;37.460;2024-02-23T11:52:47;99567.41;;;0.53;100.00
58295;BME280;45705;55.592;37.460;2024-02-23T11:55:18;99551.00;;;0.50;100.00
58295;BME280;45705;55.592;37.460;2024-02-23T11:57:47;99553.81;;;0.67;100.00
58295;BME280;45705;55.592;37.460;2024-02-23T12:00:13;99563.44;;;0.44;100.00
58295;BME280;45705;55.592;37.460;2024-02-23T12:02:39;99564.84;;;0.35;100.00
58295;BME280;45705;55.592;37.460;2024-02-23T12:05:05;99564.53;;;0.55;100.00
58295;BME280;45705;55.592;37.460;2024-02-23T12:07:32;99562.28;;;0.64;100.00
58295;BME280;45705;55.592;37.460;2024-02-23T12:09:58;99559.03;;;0.62;100.00
58295;BME280;45705;55.592;37.460;2024-02-23T12:12:27;99561.38;;;0.58;100.00
58295;BME280;45705;55.592;37.460;2024-02-23T12:14:53;99562.28;;;0.52;100.00
58295;BME280;45705;55.592;37.460;2024-02-23T12:17:19;99560.91;;;0.61;100.00
58295;BME280;45705;55.592;37.460;2024-02-23T12:19:45;99565.31;;;0.55;100.00
58295;BME280;45705;55.592;37.460;2024-02-23T12:22:11;99559.63;;;0.64;100.00
58295;BME280;45705;55.592;37.460;2024-02-23T12:24:38;99554.97;;;0.47;100.00
58295;BME280;45705;55.592;37.460;2024-02-23T12:27:07;99560.78;;;0.68;100.00
58295;BME280;45705;55.592;37.460;2024-02-23T12:29:32;99553.69;;;0.73;100.00
58295;BME280;45705;55.592;37.460;2024-02-23T12:32:05;99560.91;;;0.61;100.00
58295;BME280;45705;55.592;37.460;2024-02-23T12:34:32;99553.94;;;0.84;100.00
58295;BME280;45705;55.592;37.460;2024-02-23T12:36:57;99555.78;;;0.71;100.00
58295;BME280;45705;55.592;37.460;2024-02-23T12:39:24;99562.44;;;0.57;100.00
58295;BME280;45705;55.592;37.460;2024-02-23T12:41:49;99561.84;;;0.55;100.00
58295;BME280;45705;55.592;37.460;2024-02-23T12:44:16;99568.59;;;0.69;100.00